Caledonia, WI

10:04 AM CST on February 13, 2016 (GMT -0600)
27th And Ryan Road | | Change Station
CLOSE
Current Station
Personal Weather Station
Location: Oak Creek, WI
Elevation: 720 ft
Nearby Weather Stations

Elev 720 ft 42.87 °N, 87.95 °W | Updated 3 minutes ago

Clear
Clear
9.6 °F
Feels Like -3 °F
N
9.0
Wind Variable Wind from NW
Gusts 9.0 mph

Today
High -- | Low -- °F
--% Chance of Precip.
Yesterday
High -- | Low -- °F
Precip. -- in
Pressure 30.64 in
Visibility 10.0 miles
Clouds Clear
Windchill -3 °F
Dew Point -4 °F
Humidity 54%
Rainfall 0.00 in
Snow Depth Not available.
6:52 AM 5:20 PM
Waxing Crescent, 32% visible
METAR KRAC 131553Z AUTO 29010KT 10SM CLR M15/M23 A3059 RMK AO2 SLP376 T11501228
Pressure 30.64 in
Visibility 10.0 miles
Clouds Clear
Windchill -3 °F
Dew Point -4 °F
Humidity 54%
Rainfall 0.00 in
Snow Depth Not available.
6:52 AM 5:20 PM
Waxing Crescent, 32% visible
METAR KRAC 131553Z AUTO 29010KT 10SM CLR M15/M23 A3059 RMK AO2 SLP376 T11501228

10-Day Weather Forecast

Almanac

Astronomy

Feb. 13, 2016 Rise Set
Actual Time
Civil Twilight
Nautical Twilight
Astronomical Twilight
Moon
Length of Visible Light
Length of Day
Tomorrow will be .
, % of the Moon is Illuminated

Today's Extremes

State Highs State Lows

Community

WunderPhotos

Upload Photos

1,892,595 photos uploaded!

WunderBlog® & News

Nearby

Air Quality

  Air Quality AQ Index Pollutant
Not available.

Snow Depth

Station Depth Elevation

Earthquake Activity

City Distance Mag. Time & Date
Minimum magnitude displayed is 2.5.

Coastal Water Temperatures

Place Temperature

Stations

Nearby Weather Stations

Station Location Temp. Windchill Dew Point Humidity Wind Precip. Elev Updated Type
                   

Watches & Warnings

There are currently no watches in effect.